SAS11T EDDF-EKCH
Flight info
| Callsign | SAS11T |
|---|---|
| Flight time | 1h 8m |
| Altitude | 39000 |
| Route | MARUN3W/25C MARUN Y150 TOLGI DCT SAS DCT MAKEL/N0434F370 N851 GESKA Z711 MONAK MONAK5C |
| Aircraft | A320/M-SDE3FGHIRWY/LB1 |
Departure
| Time | 2026-05-06 20:14 |
|---|---|
| Airport | Frankfurt Main Airport (EDDF) |
Arrival
| Time | 2026-05-06 21:22 |
|---|---|
| Airport | Copenhagen Kastrup Airport (EKCH) |
| Time | Latitude | Longitude | Altitude | Speed | Heading |
|---|---|---|---|---|---|
| 2026-05-06 19:20 | 50.05188 | 8.59177 | 363 ft | 0 kts | 339° |
| 2026-05-06 19:30 | 50.05174 | 8.59184 | 342 ft | 0 kts | 339° |
| 2026-05-06 20:05 | 50.05167 | 8.59188 | 359 ft | 3 kts | 339° |
| 2026-05-06 20:05 | 50.05148 | 8.59199 | 365 ft | 3 kts | 339° |
| 2026-05-06 20:06 | 50.05130 | 8.59210 | 361 ft | 3 kts | 336° |
| 2026-05-06 20:06 | 50.05113 | 8.59225 | 361 ft | 3 kts | 317° |
| 2026-05-06 20:06 | 50.05101 | 8.59248 | 360 ft | 3 kts | 294° |
| 2026-05-06 20:06 | 50.05095 | 8.59277 | 363 ft | 3 kts | 275° |
| 2026-05-06 20:07 | 50.05094 | 8.59292 | 363 ft | 0 kts | 270° |
| 2026-05-06 20:10 | 50.05096 | 8.59277 | 363 ft | 3 kts | 281° |
| 2026-05-06 20:10 | 50.05098 | 8.59203 | 359 ft | 8 kts | 262° |
| 2026-05-06 20:10 | 50.05077 | 8.59104 | 361 ft | 11 kts | 250° |
| 2026-05-06 20:11 | 50.05047 | 8.58977 | 360 ft | 14 kts | 249° |
| 2026-05-06 20:11 | 50.05010 | 8.58825 | 364 ft | 15 kts | 250° |
| 2026-05-06 20:11 | 50.04978 | 8.58692 | 363 ft | 12 kts | 246° |
| 2026-05-06 20:11 | 50.04900 | 8.58676 | 363 ft | 13 kts | 160° |
| 2026-05-06 20:12 | 50.04821 | 8.58722 | 366 ft | 12 kts | 160° |
| 2026-05-06 20:12 | 50.04746 | 8.58764 | 368 ft | 11 kts | 161° |
| 2026-05-06 20:12 | 50.04672 | 8.58763 | 370 ft | 11 kts | 187° |
| 2026-05-06 20:12 | 50.04591 | 8.58724 | 371 ft | 13 kts | 218° |
| 2026-05-06 20:13 | 50.04509 | 8.58618 | 371 ft | 19 kts | 220° |
| 2026-05-06 20:13 | 50.04435 | 8.58374 | 370 ft | 43 kts | 250° |
| 2026-05-06 20:13 | 50.04246 | 8.57576 | 364 ft | 110 kts | 249° |
| 2026-05-06 20:13 | 50.03917 | 8.56204 | 366 ft | 158 kts | 251° |
| 2026-05-06 20:14 | 50.03506 | 8.54607 | 886 ft | 161 kts | 249° |
| 2026-05-06 20:14 | 50.03042 | 8.52984 | 1516 ft | 166 kts | 250° |
| 2026-05-06 20:14 | 50.02620 | 8.51236 | 2013 ft | 183 kts | 252° |
| 2026-05-06 20:14 | 50.01931 | 8.49482 | 2509 ft | 202 kts | 229° |
| 2026-05-06 20:15 | 50.00745 | 8.48263 | 3241 ft | 210 kts | 202° |
| 2026-05-06 20:15 | 49.99310 | 8.47799 | 3994 ft | 211 kts | 192° |
| 2026-05-06 20:15 | 49.97869 | 8.47471 | 4775 ft | 209 kts | 191° |
| 2026-05-06 20:15 | 49.96432 | 8.47156 | 5504 ft | 208 kts | 192° |
| 2026-05-06 20:16 | 49.95015 | 8.46588 | 6048 ft | 217 kts | 199° |
| 2026-05-06 20:16 | 49.93505 | 8.45892 | 6431 ft | 236 kts | 199° |
| 2026-05-06 20:16 | 49.91997 | 8.44828 | 7077 ft | 241 kts | 219° |
| 2026-05-06 20:16 | 49.90949 | 8.42820 | 7820 ft | 243 kts | 246° |
| 2026-05-06 20:17 | 49.90621 | 8.40248 | 8591 ft | 248 kts | 272° |
| 2026-05-06 20:17 | 49.91131 | 8.37682 | 9394 ft | 256 kts | 300° |
| 2026-05-06 20:17 | 49.92424 | 8.35753 | 10183 ft | 266 kts | 329° |
| 2026-05-06 20:17 | 49.94152 | 8.34548 | 10708 ft | 283 kts | 334° |
| 2026-05-06 20:18 | 49.96075 | 8.33460 | 10978 ft | 308 kts | 346° |
| 2026-05-06 20:18 | 49.98289 | 8.33514 | 11347 ft | 330 kts | 13° |
| 2026-05-06 20:18 | 50.00455 | 8.34824 | 11993 ft | 337 kts | 22° |
| 2026-05-06 20:18 | 50.02615 | 8.36306 | 12728 ft | 341 kts | 23° |
| 2026-05-06 20:19 | 50.04794 | 8.37831 | 13496 ft | 345 kts | 24° |
| 2026-05-06 20:19 | 50.06965 | 8.39358 | 14167 ft | 348 kts | 24° |
| 2026-05-06 20:19 | 50.08459 | 8.40409 | 14633 ft | 350 kts | 24° |
| 2026-05-06 20:19 | 50.11411 | 8.42481 | 15552 ft | 353 kts | 24° |
| 2026-05-06 20:20 | 50.13662 | 8.44056 | 16176 ft | 357 kts | 23° |
| 2026-05-06 20:20 | 50.15940 | 8.45644 | 16822 ft | 360 kts | 23° |
| 2026-05-06 20:20 | 50.18234 | 8.47248 | 17495 ft | 363 kts | 23° |
| 2026-05-06 20:20 | 50.20548 | 8.48863 | 18150 ft | 366 kts | 23° |
| 2026-05-06 20:21 | 50.22122 | 8.49960 | 18543 ft | 368 kts | 23° |
| 2026-05-06 20:21 | 50.24471 | 8.51596 | 19120 ft | 372 kts | 23° |
| 2026-05-06 20:21 | 50.26815 | 8.53235 | 19665 ft | 375 kts | 24° |
| 2026-05-06 20:21 | 50.29217 | 8.54918 | 20252 ft | 379 kts | 24° |
| 2026-05-06 20:22 | 50.31625 | 8.56606 | 20798 ft | 382 kts | 24° |
| 2026-05-06 20:22 | 50.34062 | 8.58321 | 21338 ft | 386 kts | 23° |
| 2026-05-06 20:22 | 50.36519 | 8.60058 | 21853 ft | 389 kts | 23° |
| 2026-05-06 20:22 | 50.38998 | 8.61808 | 22389 ft | 393 kts | 23° |
| 2026-05-06 20:23 | 50.41501 | 8.63574 | 22955 ft | 396 kts | 24° |
| 2026-05-06 20:23 | 50.44024 | 8.65356 | 23503 ft | 399 kts | 24° |
| 2026-05-06 20:23 | 50.46574 | 8.67158 | 23971 ft | 403 kts | 24° |
| 2026-05-06 20:23 | 50.49136 | 8.68967 | 24441 ft | 406 kts | 24° |
| 2026-05-06 20:24 | 50.51724 | 8.70799 | 24901 ft | 409 kts | 24° |
| 2026-05-06 20:24 | 50.54327 | 8.72646 | 25350 ft | 412 kts | 24° |
| 2026-05-06 20:24 | 50.56946 | 8.74511 | 25763 ft | 416 kts | 24° |
| 2026-05-06 20:24 | 50.59601 | 8.76403 | 26169 ft | 420 kts | 24° |
| 2026-05-06 20:25 | 50.62237 | 8.78282 | 26591 ft | 423 kts | 24° |
| 2026-05-06 20:25 | 50.64928 | 8.80202 | 27009 ft | 426 kts | 24° |
| 2026-05-06 20:25 | 50.67636 | 8.82137 | 27425 ft | 429 kts | 24° |
| 2026-05-06 20:25 | 50.70365 | 8.84087 | 27835 ft | 432 kts | 24° |
| 2026-05-06 20:26 | 50.73110 | 8.86055 | 28227 ft | 434 kts | 25° |
| 2026-05-06 20:26 | 50.75870 | 8.88034 | 28615 ft | 437 kts | 25° |
| 2026-05-06 20:26 | 50.78646 | 8.90025 | 28998 ft | 440 kts | 25° |
| 2026-05-06 20:26 | 50.81446 | 8.92035 | 29385 ft | 443 kts | 25° |
| 2026-05-06 20:27 | 50.84257 | 8.94061 | 29779 ft | 445 kts | 25° |
| 2026-05-06 20:27 | 50.87087 | 8.96099 | 30127 ft | 448 kts | 25° |
| 2026-05-06 20:27 | 50.89937 | 8.98151 | 30451 ft | 451 kts | 25° |
| 2026-05-06 20:27 | 50.92803 | 9.00221 | 30772 ft | 454 kts | 25° |
| 2026-05-06 20:28 | 50.95690 | 9.02311 | 31097 ft | 457 kts | 25° |
| 2026-05-06 20:28 | 50.98588 | 9.04411 | 31416 ft | 460 kts | 24° |
| 2026-05-06 20:28 | 51.01470 | 9.06503 | 31734 ft | 462 kts | 24° |
| 2026-05-06 20:28 | 51.04392 | 9.08626 | 32184 ft | 462 kts | 24° |
| 2026-05-06 20:29 | 51.07321 | 9.10757 | 32629 ft | 461 kts | 24° |
| 2026-05-06 20:29 | 51.10247 | 9.12892 | 33070 ft | 461 kts | 24° |
| 2026-05-06 20:29 | 51.13165 | 9.15027 | 33515 ft | 461 kts | 24° |
| 2026-05-06 20:29 | 51.16078 | 9.17160 | 33930 ft | 461 kts | 24° |
| 2026-05-06 20:30 | 51.18993 | 9.19295 | 34278 ft | 461 kts | 24° |
| 2026-05-06 20:30 | 51.24821 | 9.23569 | 34967 ft | 460 kts | 24° |
| 2026-05-06 20:30 | 51.27730 | 9.25707 | 35304 ft | 460 kts | 24° |
| 2026-05-06 20:31 | 51.30636 | 9.27849 | 35640 ft | 460 kts | 24° |
| 2026-05-06 20:31 | 51.33547 | 9.29995 | 35950 ft | 460 kts | 24° |
| 2026-05-06 20:31 | 51.36413 | 9.32104 | 36252 ft | 460 kts | 24° |
| 2026-05-06 20:31 | 51.39322 | 9.34246 | 36557 ft | 460 kts | 24° |
| 2026-05-06 20:32 | 51.42229 | 9.36394 | 36853 ft | 460 kts | 24° |
| 2026-05-06 20:32 | 51.45132 | 9.38546 | 37182 ft | 460 kts | 24° |
| 2026-05-06 20:32 | 51.48035 | 9.40704 | 37476 ft | 459 kts | 24° |
| 2026-05-06 20:32 | 51.50933 | 9.42858 | 37761 ft | 459 kts | 24° |
| 2026-05-06 20:33 | 51.53833 | 9.45014 | 38036 ft | 459 kts | 24° |
| 2026-05-06 20:33 | 51.56735 | 9.47176 | 38300 ft | 459 kts | 24° |
| 2026-05-06 20:33 | 51.59634 | 9.49340 | 38538 ft | 460 kts | 24° |
| 2026-05-06 20:33 | 51.62535 | 9.51510 | 38732 ft | 460 kts | 24° |
| 2026-05-06 20:34 | 51.65443 | 9.53685 | 38824 ft | 461 kts | 24° |
| 2026-05-06 20:34 | 51.71265 | 9.58051 | 38846 ft | 462 kts | 24° |
| 2026-05-06 20:35 | 51.77164 | 9.62486 | 38842 ft | 473 kts | 24° |
| 2026-05-06 20:35 | 51.83154 | 9.66999 | 38845 ft | 482 kts | 24° |
| 2026-05-06 20:36 | 51.89282 | 9.71639 | 38855 ft | 489 kts | 24° |
| 2026-05-06 20:36 | 51.95465 | 9.76334 | 38851 ft | 493 kts | 24° |
| 2026-05-06 20:37 | 52.01699 | 9.81085 | 38850 ft | 496 kts | 24° |
| 2026-05-06 20:37 | 52.07958 | 9.85874 | 38837 ft | 497 kts | 24° |
| 2026-05-06 20:38 | 52.14230 | 9.90669 | 38853 ft | 499 kts | 24° |
| 2026-05-06 20:38 | 52.20520 | 9.95490 | 38868 ft | 500 kts | 24° |
| 2026-05-06 20:39 | 52.26814 | 10.00343 | 38880 ft | 501 kts | 24° |
| 2026-05-06 20:39 | 52.33113 | 10.05221 | 38888 ft | 501 kts | 24° |
| 2026-05-06 20:40 | 52.39386 | 10.10095 | 38909 ft | 502 kts | 24° |
| 2026-05-06 20:40 | 52.45695 | 10.14999 | 38913 ft | 502 kts | 24° |
| 2026-05-06 20:41 | 52.51995 | 10.19920 | 38916 ft | 501 kts | 24° |
| 2026-05-06 20:41 | 52.58294 | 10.24860 | 38926 ft | 501 kts | 24° |
| 2026-05-06 20:42 | 52.64594 | 10.29808 | 38917 ft | 501 kts | 24° |
| 2026-05-06 20:42 | 52.70885 | 10.34751 | 38916 ft | 499 kts | 24° |
| 2026-05-06 20:43 | 52.77026 | 10.39609 | 38898 ft | 475 kts | 24° |
| 2026-05-06 20:43 | 52.79955 | 10.41939 | 38911 ft | 462 kts | 24° |
| 2026-05-06 20:43 | 52.82832 | 10.44227 | 38802 ft | 457 kts | 24° |
| 2026-05-06 20:43 | 52.85695 | 10.46505 | 38427 ft | 455 kts | 24° |
| 2026-05-06 20:44 | 52.88512 | 10.48745 | 37915 ft | 454 kts | 24° |
| 2026-05-06 20:44 | 52.91359 | 10.51007 | 37409 ft | 453 kts | 24° |
| 2026-05-06 20:44 | 52.94200 | 10.53265 | 36972 ft | 452 kts | 24° |
| 2026-05-06 20:44 | 52.97025 | 10.55522 | 36856 ft | 450 kts | 24° |
| 2026-05-06 20:45 | 52.99851 | 10.57788 | 36900 ft | 452 kts | 24° |
| 2026-05-06 20:45 | 53.05529 | 10.62353 | 36895 ft | 453 kts | 24° |
| 2026-05-06 20:46 | 53.11213 | 10.66922 | 36899 ft | 454 kts | 24° |
| 2026-05-06 20:46 | 53.16852 | 10.71478 | 36901 ft | 454 kts | 24° |
| 2026-05-06 20:47 | 53.22528 | 10.76086 | 36907 ft | 454 kts | 24° |
| 2026-05-06 20:47 | 53.28223 | 10.80704 | 36929 ft | 454 kts | 24° |
| 2026-05-06 20:48 | 53.33909 | 10.85324 | 36906 ft | 455 kts | 24° |
| 2026-05-06 20:48 | 53.39559 | 10.89939 | 36911 ft | 455 kts | 24° |
| 2026-05-06 20:49 | 53.45295 | 10.94647 | 36919 ft | 456 kts | 24° |
| 2026-05-06 20:49 | 53.50998 | 10.99345 | 36939 ft | 456 kts | 24° |
| 2026-05-06 20:50 | 53.56665 | 11.04007 | 36936 ft | 456 kts | 24° |
| 2026-05-06 20:50 | 53.62366 | 11.08707 | 36936 ft | 456 kts | 24° |
| 2026-05-06 20:51 | 53.68064 | 11.13426 | 36941 ft | 456 kts | 24° |
| 2026-05-06 20:51 | 53.73760 | 11.18163 | 36719 ft | 456 kts | 24° |
| 2026-05-06 20:51 | 53.76575 | 11.20512 | 36572 ft | 446 kts | 25° |
| 2026-05-06 20:52 | 53.79321 | 11.22815 | 36466 ft | 435 kts | 25° |
| 2026-05-06 20:52 | 53.84720 | 11.27353 | 36279 ft | 441 kts | 25° |
| 2026-05-06 20:53 | 53.90273 | 11.32006 | 36087 ft | 447 kts | 25° |
| 2026-05-06 20:53 | 53.93068 | 11.34348 | 35850 ft | 448 kts | 25° |
| 2026-05-06 20:53 | 53.95862 | 11.36696 | 35364 ft | 447 kts | 25° |
| 2026-05-06 20:53 | 53.98646 | 11.39042 | 34903 ft | 445 kts | 25° |
| 2026-05-06 20:54 | 54.01418 | 11.41382 | 34427 ft | 444 kts | 25° |
| 2026-05-06 20:54 | 54.04150 | 11.43696 | 33944 ft | 443 kts | 25° |
| 2026-05-06 20:54 | 54.06899 | 11.46028 | 33401 ft | 441 kts | 25° |
| 2026-05-06 20:54 | 54.09630 | 11.48349 | 32910 ft | 437 kts | 25° |
| 2026-05-06 20:55 | 54.12344 | 11.50658 | 32436 ft | 433 kts | 25° |
| 2026-05-06 20:55 | 54.15016 | 11.52933 | 31944 ft | 423 kts | 25° |
| 2026-05-06 20:55 | 54.17613 | 11.55151 | 31501 ft | 416 kts | 25° |
| 2026-05-06 20:55 | 54.20196 | 11.57359 | 31051 ft | 414 kts | 25° |
| 2026-05-06 20:56 | 54.22764 | 11.59556 | 30600 ft | 412 kts | 25° |
| 2026-05-06 20:56 | 54.25322 | 11.61744 | 30161 ft | 410 kts | 25° |
| 2026-05-06 20:56 | 54.27870 | 11.63923 | 29682 ft | 408 kts | 25° |
| 2026-05-06 20:56 | 54.30396 | 11.66091 | 29276 ft | 405 kts | 26° |
| 2026-05-06 20:57 | 54.32905 | 11.68246 | 28853 ft | 402 kts | 25° |
| 2026-05-06 20:57 | 54.35391 | 11.70382 | 28454 ft | 399 kts | 26° |
| 2026-05-06 20:57 | 54.37865 | 11.72513 | 28048 ft | 396 kts | 26° |
| 2026-05-06 20:57 | 54.40325 | 11.74638 | 27657 ft | 395 kts | 25° |
| 2026-05-06 20:58 | 54.42772 | 11.76752 | 27252 ft | 393 kts | 26° |
| 2026-05-06 20:58 | 54.45208 | 11.78859 | 26852 ft | 391 kts | 25° |
| 2026-05-06 20:58 | 54.47635 | 11.80959 | 26443 ft | 390 kts | 25° |
| 2026-05-06 20:58 | 54.50053 | 11.83055 | 26030 ft | 388 kts | 25° |
| 2026-05-06 20:59 | 54.52458 | 11.85147 | 25602 ft | 387 kts | 25° |
| 2026-05-06 20:59 | 54.54861 | 11.87237 | 25172 ft | 386 kts | 25° |
| 2026-05-06 20:59 | 54.57254 | 11.89324 | 24746 ft | 385 kts | 25° |
| 2026-05-06 20:59 | 54.59643 | 11.91408 | 24300 ft | 385 kts | 25° |
| 2026-05-06 21:00 | 54.62010 | 11.93555 | 23857 ft | 385 kts | 31° |
| 2026-05-06 21:00 | 54.64240 | 11.96094 | 23410 ft | 384 kts | 33° |
| 2026-05-06 21:00 | 54.66424 | 11.98615 | 22967 ft | 381 kts | 32° |
| 2026-05-06 21:00 | 54.68620 | 12.01153 | 22545 ft | 378 kts | 32° |
| 2026-05-06 21:01 | 54.70793 | 12.03666 | 22115 ft | 374 kts | 32° |
| 2026-05-06 21:01 | 54.72950 | 12.06163 | 21676 ft | 371 kts | 32° |
| 2026-05-06 21:01 | 54.75088 | 12.08646 | 21266 ft | 369 kts | 32° |
| 2026-05-06 21:01 | 54.77209 | 12.11108 | 20849 ft | 366 kts | 32° |
| 2026-05-06 21:02 | 54.79320 | 12.13557 | 20426 ft | 364 kts | 32° |
| 2026-05-06 21:02 | 54.81417 | 12.15990 | 20009 ft | 361 kts | 32° |
| 2026-05-06 21:02 | 54.83502 | 12.18413 | 19592 ft | 360 kts | 32° |
| 2026-05-06 21:02 | 54.85577 | 12.20829 | 19175 ft | 358 kts | 32° |
| 2026-05-06 21:03 | 54.87641 | 12.23243 | 18765 ft | 356 kts | 33° |
| 2026-05-06 21:03 | 54.89690 | 12.25647 | 18353 ft | 355 kts | 33° |
| 2026-05-06 21:03 | 54.91708 | 12.28021 | 17905 ft | 354 kts | 32° |
| 2026-05-06 21:03 | 54.93739 | 12.30407 | 17489 ft | 351 kts | 32° |
| 2026-05-06 21:04 | 54.95757 | 12.32777 | 17076 ft | 348 kts | 32° |
| 2026-05-06 21:04 | 54.97754 | 12.35121 | 16681 ft | 345 kts | 32° |
| 2026-05-06 21:04 | 54.99747 | 12.37454 | 16280 ft | 343 kts | 32° |
| 2026-05-06 21:04 | 55.01713 | 12.39753 | 16005 ft | 336 kts | 32° |
| 2026-05-06 21:05 | 55.03642 | 12.42002 | 15764 ft | 327 kts | 32° |
| 2026-05-06 21:05 | 55.05522 | 12.44196 | 15700 ft | 325 kts | 32° |
| 2026-05-06 21:05 | 55.07406 | 12.46395 | 15410 ft | 326 kts | 32° |
| 2026-05-06 21:05 | 55.09287 | 12.48590 | 14985 ft | 326 kts | 32° |
| 2026-05-06 21:06 | 55.11172 | 12.50791 | 14546 ft | 326 kts | 32° |
| 2026-05-06 21:06 | 55.13030 | 12.52967 | 14108 ft | 317 kts | 32° |
| 2026-05-06 21:06 | 55.14845 | 12.55102 | 13683 ft | 312 kts | 33° |
| 2026-05-06 21:06 | 55.16625 | 12.57198 | 13231 ft | 309 kts | 33° |
| 2026-05-06 21:07 | 55.18402 | 12.59293 | 12810 ft | 307 kts | 33° |
| 2026-05-06 21:07 | 55.20162 | 12.61370 | 12401 ft | 304 kts | 33° |
| 2026-05-06 21:07 | 55.21916 | 12.63439 | 11988 ft | 305 kts | 33° |
| 2026-05-06 21:07 | 55.23767 | 12.65229 | 11585 ft | 303 kts | 20° |
| 2026-05-06 21:08 | 55.25765 | 12.66406 | 11175 ft | 302 kts | 17° |
| 2026-05-06 21:08 | 55.27715 | 12.67507 | 10779 ft | 297 kts | 17° |
| 2026-05-06 21:08 | 55.29682 | 12.68625 | 10378 ft | 297 kts | 18° |
| 2026-05-06 21:08 | 55.31648 | 12.69747 | 9976 ft | 298 kts | 17° |
| 2026-05-06 21:09 | 55.33601 | 12.70864 | 9541 ft | 290 kts | 18° |
| 2026-05-06 21:09 | 55.35483 | 12.71937 | 9151 ft | 282 kts | 18° |
| 2026-05-06 21:09 | 55.37342 | 12.72996 | 8824 ft | 279 kts | 18° |
| 2026-05-06 21:09 | 55.39169 | 12.74040 | 8616 ft | 273 kts | 18° |
| 2026-05-06 21:10 | 55.40960 | 12.75067 | 8384 ft | 267 kts | 18° |
| 2026-05-06 21:10 | 55.42712 | 12.76075 | 8161 ft | 263 kts | 18° |
| 2026-05-06 21:10 | 55.44440 | 12.77070 | 7940 ft | 260 kts | 18° |
| 2026-05-06 21:10 | 55.46157 | 12.78061 | 7717 ft | 258 kts | 18° |
| 2026-05-06 21:11 | 55.47849 | 12.79034 | 7497 ft | 253 kts | 18° |
| 2026-05-06 21:11 | 55.49508 | 12.79986 | 7286 ft | 249 kts | 19° |
| 2026-05-06 21:11 | 55.51143 | 12.80923 | 7072 ft | 246 kts | 19° |
| 2026-05-06 21:11 | 55.52762 | 12.81854 | 6864 ft | 244 kts | 19° |
| 2026-05-06 21:12 | 55.53829 | 12.82469 | 6719 ft | 243 kts | 19° |
| 2026-05-06 21:12 | 55.55939 | 12.83697 | 6476 ft | 241 kts | 20° |
| 2026-05-06 21:12 | 55.57504 | 12.84746 | 6261 ft | 238 kts | 22° |
| 2026-05-06 21:12 | 55.59019 | 12.85839 | 6054 ft | 233 kts | 23° |
| 2026-05-06 21:13 | 55.60500 | 12.86927 | 5857 ft | 229 kts | 24° |
| 2026-05-06 21:13 | 55.61963 | 12.88016 | 5659 ft | 228 kts | 26° |
| 2026-05-06 21:13 | 55.62874 | 12.88926 | 5531 ft | 227 kts | 34° |
| 2026-05-06 21:13 | 55.64095 | 12.90702 | 5343 ft | 227 kts | 41° |
| 2026-05-06 21:14 | 55.65278 | 12.92570 | 5147 ft | 227 kts | 41° |
| 2026-05-06 21:14 | 55.66459 | 12.94423 | 4948 ft | 226 kts | 41° |
| 2026-05-06 21:14 | 55.67636 | 12.96268 | 4759 ft | 226 kts | 41° |
| 2026-05-06 21:14 | 55.68811 | 12.98112 | 4552 ft | 225 kts | 42° |
| 2026-05-06 21:15 | 55.69978 | 12.99944 | 4363 ft | 222 kts | 42° |
| 2026-05-06 21:15 | 55.71136 | 13.01753 | 4163 ft | 221 kts | 42° |
| 2026-05-06 21:15 | 55.72291 | 13.03557 | 3977 ft | 221 kts | 42° |
| 2026-05-06 21:15 | 55.73581 | 13.04943 | 3894 ft | 216 kts | 15° |
| 2026-05-06 21:16 | 55.75044 | 13.04825 | 3814 ft | 216 kts | 341° |
| 2026-05-06 21:16 | 55.76224 | 13.03184 | 3726 ft | 222 kts | 304° |
| 2026-05-06 21:16 | 55.76745 | 13.00602 | 3642 ft | 223 kts | 283° |
| 2026-05-06 21:16 | 55.77098 | 12.97926 | 3549 ft | 220 kts | 283° |
| 2026-05-06 21:17 | 55.77432 | 12.95341 | 3456 ft | 210 kts | 283° |
| 2026-05-06 21:17 | 55.77576 | 12.92876 | 3368 ft | 198 kts | 264° |
| 2026-05-06 21:17 | 55.77250 | 12.90543 | 3349 ft | 195 kts | 244° |
| 2026-05-06 21:17 | 55.76509 | 12.88555 | 3232 ft | 192 kts | 224° |
| 2026-05-06 21:18 | 55.75521 | 12.86982 | 3133 ft | 191 kts | 219° |
| 2026-05-06 21:18 | 55.74526 | 12.85427 | 3045 ft | 190 kts | 219° |
| 2026-05-06 21:18 | 55.73534 | 12.83876 | 2938 ft | 190 kts | 219° |
| 2026-05-06 21:18 | 55.72547 | 12.82333 | 2721 ft | 187 kts | 219° |
| 2026-05-06 21:19 | 55.71586 | 12.80833 | 2489 ft | 182 kts | 219° |
| 2026-05-06 21:19 | 55.70647 | 12.79368 | 2243 ft | 176 kts | 219° |
| 2026-05-06 21:19 | 55.69748 | 12.77965 | 1996 ft | 167 kts | 218° |
| 2026-05-06 21:19 | 55.68906 | 12.76653 | 1792 ft | 156 kts | 219° |
| 2026-05-06 21:20 | 55.68101 | 12.75401 | 1517 ft | 155 kts | 218° |
| 2026-05-06 21:20 | 55.67273 | 12.74122 | 1167 ft | 159 kts | 219° |
| 2026-05-06 21:20 | 55.66416 | 12.72787 | 1065 ft | 158 kts | 218° |
| 2026-05-06 21:20 | 55.65598 | 12.71524 | 760 ft | 156 kts | 218° |
| 2026-05-06 21:21 | 55.64758 | 12.70224 | 715 ft | 157 kts | 218° |
| 2026-05-06 21:21 | 55.63967 | 12.68977 | 486 ft | 148 kts | 218° |
| 2026-05-06 21:21 | 55.63217 | 12.67807 | 251 ft | 139 kts | 219° |
| 2026-05-06 21:21 | 55.62521 | 12.66722 | 45 ft | 130 kts | 219° |
| 2026-05-06 21:22 | 55.61906 | 12.65775 | 25 ft | 106 kts | 222° |
| 2026-05-06 21:22 | 55.61433 | 12.65040 | 24 ft | 68 kts | 221° |
| 2026-05-06 21:22 | 55.61281 | 12.64715 | 25 ft | 22 kts | 244° |
| 2026-05-06 21:22 | 55.61240 | 12.64529 | 24 ft | 11 kts | 251° |
| 2026-05-06 21:23 | 55.61212 | 12.64381 | 24 ft | 14 kts | 251° |
| 2026-05-06 21:23 | 55.61188 | 12.64200 | 24 ft | 17 kts | 280° |
| 2026-05-06 21:23 | 55.61282 | 12.64118 | 24 ft | 19 kts | 22° |
| 2026-05-06 21:23 | 55.61402 | 12.64250 | 24 ft | 22 kts | 33° |
| 2026-05-06 21:24 | 55.61536 | 12.64404 | 25 ft | 20 kts | 33° |
| 2026-05-06 21:24 | 55.61650 | 12.64534 | 24 ft | 21 kts | 33° |
| 2026-05-06 21:24 | 55.61783 | 12.64687 | 24 ft | 26 kts | 33° |
| 2026-05-06 21:24 | 55.61901 | 12.64822 | 26 ft | 21 kts | 33° |
| 2026-05-06 21:25 | 55.62002 | 12.64940 | 24 ft | 16 kts | 33° |
| 2026-05-06 21:25 | 55.62104 | 12.65057 | 24 ft | 18 kts | 33° |
| 2026-05-06 21:25 | 55.62187 | 12.65153 | 24 ft | 12 kts | 33° |
| 2026-05-06 21:25 | 55.62266 | 12.65197 | 24 ft | 14 kts | 0° |
| 2026-05-06 21:26 | 55.62356 | 12.65203 | 24 ft | 14 kts | 359° |
| 2026-05-06 21:26 | 55.62437 | 12.65200 | 24 ft | 11 kts | 357° |
| 2026-05-06 21:26 | 55.62522 | 12.65184 | 24 ft | 13 kts | 359° |
| 2026-05-06 21:26 | 55.62581 | 12.65182 | 26 ft | 9 kts | 358° |
| 2026-05-06 21:27 | 55.62649 | 12.65215 | 26 ft | 12 kts | 54° |
| 2026-05-06 21:27 | 55.62645 | 12.65322 | 26 ft | 8 kts | 81° |
| 2026-05-06 21:27 | 55.62691 | 12.65382 | 26 ft | 6 kts | 26° |
| 2026-05-06 21:27 | 55.62706 | 12.65395 | 24 ft | 2 kts | 27° |
| 2026-05-06 21:28 | 55.62707 | 12.65396 | 24 ft | 0 kts | 27° |